sensor_id;sensor_type;location;lat;lon;timestamp;P1;durP1;ratioP1;P2;durP2;ratioP2
68866;SDS011;56451;44.804;20.476;2023-04-24T00:00:37;8.05;;;4.35;;
68866;SDS011;56451;44.804;20.476;2023-04-24T00:03:06;6.18;;;4.10;;
68866;SDS011;56451;44.804;20.476;2023-04-24T00:05:33;7.68;;;4.10;;
68866;SDS011;56451;44.804;20.476;2023-04-24T00:07:59;7.30;;;4.20;;
68866;SDS011;56451;44.804;20.476;2023-04-24T00:10:25;6.75;;;4.10;;
68866;SDS011;56451;44.804;20.476;2023-04-24T00:12:51;8.05;;;3.92;;
68866;SDS011;56451;44.804;20.476;2023-04-24T00:15:17;6.40;;;4.27;;
68866;SDS011;56451;44.804;20.476;2023-04-24T00:17:43;5.17;;;3.60;;
68866;SDS011;56451;44.804;20.476;2023-04-24T00:20:09;10.40;;;4.47;;
68866;SDS011;56451;44.804;20.476;2023-04-24T00:22:36;7.32;;;4.32;;
68866;SDS011;56451;44.804;20.476;2023-04-24T00:25:02;7.20;;;4.50;;
68866;SDS011;56451;44.804;20.476;2023-04-24T00:27:29;6.53;;;4.17;;
68866;SDS011;56451;44.804;20.476;2023-04-24T00:29:55;5.38;;;4.07;;
68866;SDS011;56451;44.804;20.476;2023-04-24T00:32:21;7.03;;;4.40;;
68866;SDS011;56451;44.804;20.476;2023-04-24T00:34:47;6.55;;;4.10;;
68866;SDS011;56451;44.804;20.476;2023-04-24T00:37:13;5.80;;;4.30;;
68866;SDS011;56451;44.804;20.476;2023-04-24T00:39:40;7.53;;;4.25;;
68866;SDS011;56451;44.804;20.476;2023-04-24T00:42:06;6.30;;;3.92;;
68866;SDS011;56451;44.804;20.476;2023-04-24T00:44:35;6.20;;;4.40;;
68866;SDS011;56451;44.804;20.476;2023-04-24T00:47:01;4.68;;;4.07;;
68866;SDS011;56451;44.804;20.476;2023-04-24T00:49:27;5.00;;;4.50;;
68866;SDS011;56451;44.804;20.476;2023-04-24T00:51:52;9.25;;;4.50;;
68866;SDS011;56451;44.804;20.476;2023-04-24T00:54:19;6.82;;;4.35;;
68866;SDS011;56451;44.804;20.476;2023-04-24T00:56:45;7.60;;;4.75;;
68866;SDS011;56451;44.804;20.476;2023-04-24T00:59:12;8.77;;;4.43;;
68866;SDS011;56451;44.804;20.476;2023-04-24T01:01:38;7.45;;;4.68;;
68866;SDS011;56451;44.804;20.476;2023-04-24T01:04:11;7.57;;;4.85;;
68866;SDS011;56451;44.804;20.476;2023-04-24T01:06:38;7.97;;;4.43;;
68866;SDS011;56451;44.804;20.476;2023-04-24T01:09:05;6.15;;;4.53;;
68866;SDS011;56451;44.804;20.476;2023-04-24T01:11:35;9.53;;;5.43;;
68866;SDS011;56451;44.804;20.476;2023-04-24T01:14:03;5.22;;;4.55;;
68866;SDS011;56451;44.804;20.476;2023-04-24T01:16:30;16.15;;;5.25;;
68866;SDS011;56451;44.804;20.476;2023-04-24T01:18:56;6.97;;;4.53;;
68866;SDS011;56451;44.804;20.476;2023-04-24T01:21:21;9.67;;;4.47;;
68866;SDS011;56451;44.804;20.476;2023-04-24T01:23:50;6.80;;;4.60;;
68866;SDS011;56451;44.804;20.476;2023-04-24T01:26:17;11.05;;;4.80;;
68866;SDS011;56451;44.804;20.476;2023-04-24T01:28:45;8.45;;;4.72;;
68866;SDS011;56451;44.804;20.476;2023-04-24T01:31:12;7.80;;;4.63;;
68866;SDS011;56451;44.804;20.476;2023-04-24T01:33:38;8.33;;;4.83;;
68866;SDS011;56451;44.804;20.476;2023-04-24T01:36:04;7.40;;;4.28;;
68866;SDS011;56451;44.804;20.476;2023-04-24T01:38:30;5.32;;;4.22;;
68866;SDS011;56451;44.804;20.476;2023-04-24T01:40:56;7.00;;;4.32;;
68866;SDS011;56451;44.804;20.476;2023-04-24T01:43:24;5.67;;;4.53;;
68866;SDS011;56451;44.804;20.476;2023-04-24T01:45:50;7.20;;;4.40;;
68866;SDS011;56451;44.804;20.476;2023-04-24T01:48:16;6.70;;;4.22;;
68866;SDS011;56451;44.804;20.476;2023-04-24T01:50:42;7.43;;;4.67;;
68866;SDS011;56451;44.804;20.476;2023-04-24T01:53:11;6.40;;;4.28;;
68866;SDS011;56451;44.804;20.476;2023-04-24T01:55:37;8.80;;;5.38;;
68866;SDS011;56451;44.804;20.476;2023-04-24T01:58:04;8.38;;;4.97;;
68866;SDS011;56451;44.804;20.476;2023-04-24T02:00:30;6.80;;;4.70;;
68866;SDS011;56451;44.804;20.476;2023-04-24T02:02:56;8.07;;;5.17;;
68866;SDS011;56451;44.804;20.476;2023-04-24T02:05:24;9.25;;;5.35;;
68866;SDS011;56451;44.804;20.476;2023-04-24T02:07:50;7.35;;;5.25;;
68866;SDS011;56451;44.804;20.476;2023-04-24T02:10:16;7.50;;;5.50;;
68866;SDS011;56451;44.804;20.476;2023-04-24T02:12:42;8.48;;;5.50;;
68866;SDS011;56451;44.804;20.476;2023-04-24T02:15:08;9.77;;;5.35;;
68866;SDS011;56451;44.804;20.476;2023-04-24T02:17:36;10.68;;;5.13;;
68866;SDS011;56451;44.804;20.476;2023-04-24T02:20:03;8.38;;;5.55;;
68866;SDS011;56451;44.804;20.476;2023-04-24T02:22:30;9.40;;;5.67;;
68866;SDS011;56451;44.804;20.476;2023-04-24T02:24:56;8.32;;;5.15;;
68866;SDS011;56451;44.804;20.476;2023-04-24T02:27:22;8.55;;;5.28;;
68866;SDS011;56451;44.804;20.476;2023-04-24T02:29:48;10.83;;;5.93;;
68866;SDS011;56451;44.804;20.476;2023-04-24T02:32:14;8.48;;;6.00;;
68866;SDS011;56451;44.804;20.476;2023-04-24T02:34:42;12.82;;;5.97;;
68866;SDS011;56451;44.804;20.476;2023-04-24T02:37:08;8.25;;;5.82;;
68866;SDS011;56451;44.804;20.476;2023-04-24T02:39:35;9.37;;;5.57;;
68866;SDS011;56451;44.804;20.476;2023-04-24T02:42:01;8.00;;;5.88;;
68866;SDS011;56451;44.804;20.476;2023-04-24T02:44:27;9.35;;;5.63;;
68866;SDS011;56451;44.804;20.476;2023-04-24T02:46:53;8.30;;;5.43;;
68866;SDS011;56451;44.804;20.476;2023-04-24T02:49:19;6.90;;;5.45;;
68866;SDS011;56451;44.804;20.476;2023-04-24T02:51:46;8.77;;;5.20;;
68866;SDS011;56451;44.804;20.476;2023-04-24T02:54:12;9.95;;;5.35;;
68866;SDS011;56451;44.804;20.476;2023-04-24T02:56:38;8.60;;;5.13;;
68866;SDS011;56451;44.804;20.476;2023-04-24T02:59:06;9.77;;;5.28;;
68866;SDS011;56451;44.804;20.476;2023-04-24T03:01:32;8.18;;;5.72;;
68866;SDS011;56451;44.804;20.476;2023-04-24T03:03:59;9.52;;;5.80;;
68866;SDS011;56451;44.804;20.476;2023-04-24T03:06:25;9.27;;;5.50;;
68866;SDS011;56451;44.804;20.476;2023-04-24T03:08:52;8.70;;;5.28;;
68866;SDS011;56451;44.804;20.476;2023-04-24T03:11:18;7.45;;;4.97;;
68866;SDS011;56451;44.804;20.476;2023-04-24T03:13:45;12.15;;;5.63;;
68866;SDS011;56451;44.804;20.476;2023-04-24T03:16:11;8.30;;;5.13;;
68866;SDS011;56451;44.804;20.476;2023-04-24T03:18:37;6.37;;;5.27;;
68866;SDS011;56451;44.804;20.476;2023-04-24T03:21:04;9.32;;;5.15;;
68866;SDS011;56451;44.804;20.476;2023-04-24T03:23:31;7.97;;;5.20;;
68866;SDS011;56451;44.804;20.476;2023-04-24T03:25:57;7.93;;;5.65;;
68866;SDS011;56451;44.804;20.476;2023-04-24T03:28:24;7.25;;;5.50;;
68866;SDS011;56451;44.804;20.476;2023-04-24T03:31:03;6.07;;;4.70;;
68866;SDS011;56451;44.804;20.476;2023-04-24T03:33:32;6.40;;;4.95;;
68866;SDS011;56451;44.804;20.476;2023-04-24T03:36:00;9.80;;;6.00;;
68866;SDS011;56451;44.804;20.476;2023-04-24T03:38:31;10.77;;;5.55;;
68866;SDS011;56451;44.804;20.476;2023-04-24T03:41:11;6.18;;;4.63;;
68866;SDS011;56451;44.804;20.476;2023-04-24T03:43:45;8.73;;;5.53;;
68866;SDS011;56451;44.804;20.476;2023-04-24T03:46:11;11.10;;;5.57;;
68866;SDS011;56451;44.804;20.476;2023-04-24T03:48:41;7.50;;;4.80;;
68866;SDS011;56451;44.804;20.476;2023-04-24T03:51:08;10.02;;;5.40;;
68866;SDS011;56451;44.804;20.476;2023-04-24T03:53:36;8.38;;;5.35;;
68866;SDS011;56451;44.804;20.476;2023-04-24T03:56:03;7.00;;;5.00;;
68866;SDS011;56451;44.804;20.476;2023-04-24T03:58:30;7.10;;;4.65;;
68866;SDS011;56451;44.804;20.476;2023-04-24T04:00:56;6.60;;;5.40;;
68866;SDS011;56451;44.804;20.476;2023-04-24T04:03:47;7.20;;;5.35;;
68866;SDS011;56451;44.804;20.476;2023-04-24T04:06:16;11.00;;;5.07;;
68866;SDS011;56451;44.804;20.476;2023-04-24T04:08:43;7.87;;;4.90;;
68866;SDS011;56451;44.804;20.476;2023-04-24T04:11:09;9.60;;;5.95;;
68866;SDS011;56451;44.804;20.476;2023-04-24T04:13:35;7.70;;;4.85;;
68866;SDS011;56451;44.804;20.476;2023-04-24T04:16:02;9.60;;;4.90;;
68866;SDS011;56451;44.804;20.476;2023-04-24T04:18:27;8.23;;;5.93;;
68866;SDS011;56451;44.804;20.476;2023-04-24T04:20:54;8.93;;;5.53;;
68866;SDS011;56451;44.804;20.476;2023-04-24T04:23:20;9.25;;;5.93;;
68866;SDS011;56451;44.804;20.476;2023-04-24T04:26:10;8.70;;;5.95;;
68866;SDS011;56451;44.804;20.476;2023-04-24T04:28:59;7.70;;;5.70;;
68866;SDS011;56451;44.804;20.476;2023-04-24T04:31:30;11.50;;;6.22;;
68866;SDS011;56451;44.804;20.476;2023-04-24T04:34:00;10.07;;;6.50;;
68866;SDS011;56451;44.804;20.476;2023-04-24T04:36:29;10.07;;;6.30;;
68866;SDS011;56451;44.804;20.476;2023-04-24T04:39:02;10.13;;;6.47;;
68866;SDS011;56451;44.804;20.476;2023-04-24T04:41:42;10.40;;;5.83;;
68866;SDS011;56451;44.804;20.476;2023-04-24T04:44:10;9.10;;;6.57;;
68866;SDS011;56451;44.804;20.476;2023-04-24T04:46:36;9.23;;;6.50;;
68866;SDS011;56451;44.804;20.476;2023-04-24T04:49:17;7.90;;;5.82;;
68866;SDS011;56451;44.804;20.476;2023-04-24T04:51:44;10.63;;;5.88;;
68866;SDS011;56451;44.804;20.476;2023-04-24T04:54:11;8.50;;;5.27;;
68866;SDS011;56451;44.804;20.476;2023-04-24T04:56:37;8.52;;;5.57;;
68866;SDS011;56451;44.804;20.476;2023-04-24T04:59:03;9.63;;;5.82;;
68866;SDS011;56451;44.804;20.476;2023-04-24T05:01:29;7.32;;;5.32;;
68866;SDS011;56451;44.804;20.476;2023-04-24T05:03:56;11.63;;;5.88;;
68866;SDS011;56451;44.804;20.476;2023-04-24T05:06:21;14.03;;;6.50;;
68866;SDS011;56451;44.804;20.476;2023-04-24T05:08:48;14.57;;;7.43;;
68866;SDS011;56451;44.804;20.476;2023-04-24T05:11:28;12.70;;;5.93;;
68866;SDS011;56451;44.804;20.476;2023-04-24T05:13:56;10.05;;;5.60;;
68866;SDS011;56451;44.804;20.476;2023-04-24T05:16:31;7.25;;;5.03;;
68866;SDS011;56451;44.804;20.476;2023-04-24T05:18:57;8.40;;;5.50;;
68866;SDS011;56451;44.804;20.476;2023-04-24T05:21:29;8.32;;;5.53;;
68866;SDS011;56451;44.804;20.476;2023-04-24T05:23:56;10.00;;;6.03;;
68866;SDS011;56451;44.804;20.476;2023-04-24T05:26:38;8.55;;;5.88;;
68866;SDS011;56451;44.804;20.476;2023-04-24T05:29:06;12.60;;;6.65;;
68866;SDS011;56451;44.804;20.476;2023-04-24T05:31:32;11.23;;;6.37;;
68866;SDS011;56451;44.804;20.476;2023-04-24T05:33:58;13.35;;;6.40;;
68866;SDS011;56451;44.804;20.476;2023-04-24T05:36:24;9.70;;;6.13;;
68866;SDS011;56451;44.804;20.476;2023-04-24T05:38:50;9.70;;;6.05;;
68866;SDS011;56451;44.804;20.476;2023-04-24T05:41:16;13.17;;;5.83;;
68866;SDS011;56451;44.804;20.476;2023-04-24T05:43:42;12.45;;;6.28;;
68866;SDS011;56451;44.804;20.476;2023-04-24T05:46:08;8.75;;;5.88;;
68866;SDS011;56451;44.804;20.476;2023-04-24T05:48:34;9.73;;;5.90;;
68866;SDS011;56451;44.804;20.476;2023-04-24T05:51:02;11.30;;;6.20;;
68866;SDS011;56451;44.804;20.476;2023-04-24T05:53:28;9.52;;;5.80;;
68866;SDS011;56451;44.804;20.476;2023-04-24T05:55:54;10.30;;;5.60;;
68866;SDS011;56451;44.804;20.476;2023-04-24T05:58:20;8.13;;;5.60;;
68866;SDS011;56451;44.804;20.476;2023-04-24T06:00:47;7.45;;;5.55;;
68866;SDS011;56451;44.804;20.476;2023-04-24T06:03:13;9.95;;;5.85;;
68866;SDS011;56451;44.804;20.476;2023-04-24T06:05:40;8.30;;;5.85;;
68866;SDS011;56451;44.804;20.476;2023-04-24T06:08:06;11.90;;;5.65;;
68866;SDS011;56451;44.804;20.476;2023-04-24T06:10:35;11.07;;;5.70;;
68866;SDS011;56451;44.804;20.476;2023-04-24T06:13:02;8.80;;;5.70;;
68866;SDS011;56451;44.804;20.476;2023-04-24T06:15:29;10.40;;;6.00;;
68866;SDS011;56451;44.804;20.476;2023-04-24T06:18:04;8.38;;;5.85;;
68866;SDS011;56451;44.804;20.476;2023-04-24T06:20:30;12.37;;;6.30;;
68866;SDS011;56451;44.804;20.476;2023-04-24T06:22:56;9.47;;;6.60;;
68866;SDS011;56451;44.804;20.476;2023-04-24T06:25:24;11.38;;;6.30;;
68866;SDS011;56451;44.804;20.476;2023-04-24T06:27:51;9.57;;;6.65;;
68866;SDS011;56451;44.804;20.476;2023-04-24T06:30:17;8.37;;;6.00;;
68866;SDS011;56451;44.804;20.476;2023-04-24T06:32:43;8.63;;;5.80;;
68866;SDS011;56451;44.804;20.476;2023-04-24T06:35:09;10.38;;;5.95;;
68866;SDS011;56451;44.804;20.476;2023-04-24T06:37:38;11.77;;;6.43;;
68866;SDS011;56451;44.804;20.476;2023-04-24T06:40:05;8.82;;;6.00;;
68866;SDS011;56451;44.804;20.476;2023-04-24T06:42:32;10.27;;;7.07;;
68866;SDS011;56451;44.804;20.476;2023-04-24T06:44:57;11.17;;;6.47;;
68866;SDS011;56451;44.804;20.476;2023-04-24T06:47:24;9.88;;;6.70;;
68866;SDS011;56451;44.804;20.476;2023-04-24T06:49:51;11.05;;;6.82;;
68866;SDS011;56451;44.804;20.476;2023-04-24T06:52:18;9.80;;;6.75;;
68866;SDS011;56451;44.804;20.476;2023-04-24T06:54:45;9.67;;;7.00;;
68866;SDS011;56451;44.804;20.476;2023-04-24T06:57:10;9.80;;;6.68;;
68866;SDS011;56451;44.804;20.476;2023-04-24T06:59:37;12.93;;;7.35;;
68866;SDS011;56451;44.804;20.476;2023-04-24T07:02:03;13.27;;;7.40;;
68866;SDS011;56451;44.804;20.476;2023-04-24T07:04:29;10.95;;;7.22;;
68866;SDS011;56451;44.804;20.476;2023-04-24T07:06:56;10.65;;;7.88;;
68866;SDS011;56451;44.804;20.476;2023-04-24T07:09:23;10.43;;;7.35;;
68866;SDS011;56451;44.804;20.476;2023-04-24T07:11:53;11.82;;;8.05;;
68866;SDS011;56451;44.804;20.476;2023-04-24T07:14:22;13.87;;;7.80;;
68866;SDS011;56451;44.804;20.476;2023-04-24T07:16:48;10.88;;;7.35;;
68866;SDS011;56451;44.804;20.476;2023-04-24T07:19:14;13.00;;;8.10;;
68866;SDS011;56451;44.804;20.476;2023-04-24T07:21:43;12.18;;;7.85;;
68866;SDS011;56451;44.804;20.476;2023-04-24T07:24:08;12.13;;;7.37;;
68866;SDS011;56451;44.804;20.476;2023-04-24T07:26:36;9.15;;;7.03;;
68866;SDS011;56451;44.804;20.476;2023-04-24T07:29:02;11.75;;;7.07;;
68866;SDS011;56451;44.804;20.476;2023-04-24T07:31:28;12.38;;;7.68;;
68866;SDS011;56451;44.804;20.476;2023-04-24T07:33:54;10.47;;;6.87;;
68866;SDS011;56451;44.804;20.476;2023-04-24T07:36:23;13.40;;;7.32;;
68866;SDS011;56451;44.804;20.476;2023-04-24T07:38:51;9.50;;;7.07;;
68866;SDS011;56451;44.804;20.476;2023-04-24T07:41:18;11.82;;;7.35;;
68866;SDS011;56451;44.804;20.476;2023-04-24T07:43:44;11.02;;;6.32;;
68866;SDS011;56451;44.804;20.476;2023-04-24T07:46:10;13.00;;;6.67;;
68866;SDS011;56451;44.804;20.476;2023-04-24T07:48:36;8.70;;;5.85;;
68866;SDS011;56451;44.804;20.476;2023-04-24T07:51:02;11.35;;;7.38;;
68866;SDS011;56451;44.804;20.476;2023-04-24T07:53:28;12.50;;;6.88;;
68866;SDS011;56451;44.804;20.476;2023-04-24T07:55:57;12.60;;;7.63;;
68866;SDS011;56451;44.804;20.476;2023-04-24T07:58:23;15.55;;;9.98;;
68866;SDS011;56451;44.804;20.476;2023-04-24T08:00:49;13.95;;;7.78;;
68866;SDS011;56451;44.804;20.476;2023-04-24T08:03:16;16.80;;;11.93;;
68866;SDS011;56451;44.804;20.476;2023-04-24T08:05:44;16.27;;;10.60;;
68866;SDS011;56451;44.804;20.476;2023-04-24T08:08:10;14.33;;;8.87;;
68866;SDS011;56451;44.804;20.476;2023-04-24T08:10:36;20.92;;;12.27;;
68866;SDS011;56451;44.804;20.476;2023-04-24T08:13:02;25.05;;;14.85;;
68866;SDS011;56451;44.804;20.476;2023-04-24T08:15:28;39.63;;;19.50;;
68866;SDS011;56451;44.804;20.476;2023-04-24T08:17:54;154.57;;;51.90;;
68866;SDS011;56451;44.804;20.476;2023-04-24T08:20:20;69.93;;;36.80;;
68866;SDS011;56451;44.804;20.476;2023-04-24T08:22:46;17.02;;;11.63;;
68866;SDS011;56451;44.804;20.476;2023-04-24T08:25:14;9.98;;;7.03;;
68866;SDS011;56451;44.804;20.476;2023-04-24T08:27:40;9.90;;;6.40;;
68866;SDS011;56451;44.804;20.476;2023-04-24T08:30:06;10.77;;;6.82;;
68866;SDS011;56451;44.804;20.476;2023-04-24T08:32:32;8.80;;;6.15;;
68866;SDS011;56451;44.804;20.476;2023-04-24T08:34:59;10.83;;;6.90;;
68866;SDS011;56451;44.804;20.476;2023-04-24T08:37:25;9.83;;;6.77;;
68866;SDS011;56451;44.804;20.476;2023-04-24T08:39:52;13.30;;;7.15;;
68866;SDS011;56451;44.804;20.476;2023-04-24T08:42:19;9.48;;;6.80;;
68866;SDS011;56451;44.804;20.476;2023-04-24T08:44:47;11.40;;;6.72;;
68866;SDS011;56451;44.804;20.476;2023-04-24T08:47:14;12.65;;;6.63;;
68866;SDS011;56451;44.804;20.476;2023-04-24T08:49:41;8.97;;;6.67;;
68866;SDS011;56451;44.804;20.476;2023-04-24T08:52:08;10.57;;;7.25;;
68866;SDS011;56451;44.804;20.476;2023-04-24T08:54:37;9.43;;;7.05;;
68866;SDS011;56451;44.804;20.476;2023-04-24T08:57:04;9.93;;;7.20;;
68866;SDS011;56451;44.804;20.476;2023-04-24T08:59:34;8.27;;;6.87;;
68866;SDS011;56451;44.804;20.476;2023-04-24T09:02:00;10.18;;;7.03;;
68866;SDS011;56451;44.804;20.476;2023-04-24T09:04:29;10.15;;;7.30;;
68866;SDS011;56451;44.804;20.476;2023-04-24T09:06:56;11.05;;;7.07;;
68866;SDS011;56451;44.804;20.476;2023-04-24T09:09:24;10.57;;;6.80;;
68866;SDS011;56451;44.804;20.476;2023-04-24T09:11:51;13.90;;;7.20;;
68866;SDS011;56451;44.804;20.476;2023-04-24T09:14:19;10.70;;;7.38;;
68866;SDS011;56451;44.804;20.476;2023-04-24T09:16:46;10.73;;;7.03;;
68866;SDS011;56451;44.804;20.476;2023-04-24T09:19:13;11.85;;;6.88;;
68866;SDS011;56451;44.804;20.476;2023-04-24T09:21:39;10.48;;;7.15;;
68866;SDS011;56451;44.804;20.476;2023-04-24T09:24:08;13.50;;;8.20;;
68866;SDS011;56451;44.804;20.476;2023-04-24T09:26:43;11.90;;;8.27;;
68866;SDS011;56451;44.804;20.476;2023-04-24T09:29:14;15.52;;;8.25;;
68866;SDS011;56451;44.804;20.476;2023-04-24T09:31:41;18.33;;;8.32;;
68866;SDS011;56451;44.804;20.476;2023-04-24T09:34:07;11.38;;;7.45;;
68866;SDS011;56451;44.804;20.476;2023-04-24T09:36:34;9.30;;;7.30;;
68866;SDS011;56451;44.804;20.476;2023-04-24T09:39:14;13.10;;;7.55;;
68866;SDS011;56451;44.804;20.476;2023-04-24T09:41:44;9.85;;;6.93;;
68866;SDS011;56451;44.804;20.476;2023-04-24T09:46:44;21.13;;;10.27;;
68866;SDS011;56451;44.804;20.476;2023-04-24T09:49:14;14.02;;;8.75;;
68866;SDS011;56451;44.804;20.476;2023-04-24T09:51:42;11.95;;;8.80;;
68866;SDS011;56451;44.804;20.476;2023-04-24T09:54:15;13.52;;;7.90;;
68866;SDS011;56451;44.804;20.476;2023-04-24T09:56:47;10.17;;;7.87;;
68866;SDS011;56451;44.804;20.476;2023-04-24T09:59:19;12.02;;;7.97;;
68866;SDS011;56451;44.804;20.476;2023-04-24T10:01:45;11.95;;;7.88;;
68866;SDS011;56451;44.804;20.476;2023-04-24T10:04:20;14.48;;;7.97;;
68866;SDS011;56451;44.804;20.476;2023-04-24T10:06:49;12.02;;;7.55;;
68866;SDS011;56451;44.804;20.476;2023-04-24T10:09:16;10.07;;;7.27;;
68866;SDS011;56451;44.804;20.476;2023-04-24T10:11:45;13.38;;;7.88;;
68866;SDS011;56451;44.804;20.476;2023-04-24T10:14:17;13.65;;;8.02;;
68866;SDS011;56451;44.804;20.476;2023-04-24T10:16:44;12.20;;;7.45;;
68866;SDS011;56451;44.804;20.476;2023-04-24T10:19:12;9.73;;;6.97;;
68866;SDS011;56451;44.804;20.476;2023-04-24T10:21:41;12.70;;;7.00;;
68866;SDS011;56451;44.804;20.476;2023-04-24T10:24:12;9.77;;;6.60;;
68866;SDS011;56451;44.804;20.476;2023-04-24T10:26:40;12.93;;;6.88;;
68866;SDS011;56451;44.804;20.476;2023-04-24T10:29:07;10.38;;;7.00;;
68866;SDS011;56451;44.804;20.476;2023-04-24T10:31:38;14.43;;;7.75;;
68866;SDS011;56451;44.804;20.476;2023-04-24T10:34:08;10.03;;;7.17;;
68866;SDS011;56451;44.804;20.476;2023-04-24T10:36:36;11.70;;;7.45;;
68866;SDS011;56451;44.804;20.476;2023-04-24T10:39:06;11.23;;;7.88;;
68866;SDS011;56451;44.804;20.476;2023-04-24T10:41:37;10.88;;;8.18;;
68866;SDS011;56451;44.804;20.476;2023-04-24T10:44:06;9.82;;;7.15;;
68866;SDS011;56451;44.804;20.476;2023-04-24T10:46:33;14.33;;;7.93;;
68866;SDS011;56451;44.804;20.476;2023-04-24T10:48:59;11.50;;;7.35;;
68866;SDS011;56451;44.804;20.476;2023-04-24T10:51:45;12.02;;;7.78;;
68866;SDS011;56451;44.804;20.476;2023-04-24T10:57:40;12.23;;;7.07;;
68866;SDS011;56451;44.804;20.476;2023-04-24T11:00:19;9.33;;;6.73;;
68866;SDS011;56451;44.804;20.476;2023-04-24T11:02:47;11.20;;;7.20;;
68866;SDS011;56451;44.804;20.476;2023-04-24T11:05:18;8.95;;;6.47;;
68866;SDS011;56451;44.804;20.476;2023-04-24T11:10:40;11.48;;;7.65;;
68866;SDS011;56451;44.804;20.476;2023-04-24T11:13:09;8.40;;;6.23;;
68866;SDS011;56451;44.804;20.476;2023-04-24T11:15:35;10.55;;;5.95;;
68866;SDS011;56451;44.804;20.476;2023-04-24T11:18:02;10.32;;;6.35;;
68866;SDS011;56451;44.804;20.476;2023-04-24T11:20:28;17.73;;;8.75;;
68866;SDS011;56451;44.804;20.476;2023-04-24T11:22:54;13.07;;;7.35;;
68866;SDS011;56451;44.804;20.476;2023-04-24T11:25:21;10.63;;;6.70;;
68866;SDS011;56451;44.804;20.476;2023-04-24T11:27:50;11.93;;;6.03;;
68866;SDS011;56451;44.804;20.476;2023-04-24T11:30:30;10.80;;;5.28;;
68866;SDS011;56451;44.804;20.476;2023-04-24T11:33:02;6.75;;;4.88;;
68866;SDS011;56451;44.804;20.476;2023-04-24T11:35:29;5.75;;;4.78;;
68866;SDS011;56451;44.804;20.476;2023-04-24T11:37:55;8.37;;;5.67;;
68866;SDS011;56451;44.804;20.476;2023-04-24T11:40:22;13.02;;;7.60;;
68866;SDS011;56451;44.804;20.476;2023-04-24T11:42:49;9.52;;;6.22;;
68866;SDS011;56451;44.804;20.476;2023-04-24T11:47:49;9.52;;;6.30;;
68866;SDS011;56451;44.804;20.476;2023-04-24T11:50:16;11.10;;;6.70;;
68866;SDS011;56451;44.804;20.476;2023-04-24T11:52:45;10.93;;;7.20;;
68866;SDS011;56451;44.804;20.476;2023-04-24T11:57:45;12.57;;;7.78;;
68866;SDS011;56451;44.804;20.476;2023-04-24T12:00:18;13.55;;;7.30;;
68866;SDS011;56451;44.804;20.476;2023-04-24T12:02:46;9.40;;;7.03;;
68866;SDS011;56451;44.804;20.476;2023-04-24T12:05:19;10.35;;;6.55;;
68866;SDS011;56451;44.804;20.476;2023-04-24T12:07:49;10.38;;;6.32;;
68866;SDS011;56451;44.804;20.476;2023-04-24T12:10:22;7.88;;;6.10;;
68866;SDS011;56451;44.804;20.476;2023-04-24T12:12:50;9.05;;;5.85;;
68866;SDS011;56451;44.804;20.476;2023-04-24T12:15:17;10.00;;;6.70;;
68866;SDS011;56451;44.804;20.476;2023-04-24T12:17:44;10.02;;;6.47;;
68866;SDS011;56451;44.804;20.476;2023-04-24T12:20:10;14.05;;;7.35;;
68866;SDS011;56451;44.804;20.476;2023-04-24T12:22:53;11.57;;;7.28;;
68866;SDS011;56451;44.804;20.476;2023-04-24T12:25:22;10.02;;;7.40;;
68866;SDS011;56451;44.804;20.476;2023-04-24T12:27:53;11.83;;;7.47;;
68866;SDS011;56451;44.804;20.476;2023-04-24T12:30:21;11.65;;;7.53;;
68866;SDS011;56451;44.804;20.476;2023-04-24T12:32:51;15.38;;;8.75;;
68866;SDS011;56451;44.804;20.476;2023-04-24T12:35:21;13.70;;;8.30;;
68866;SDS011;56451;44.804;20.476;2023-04-24T12:37:48;9.95;;;7.82;;
68866;SDS011;56451;44.804;20.476;2023-04-24T12:40:16;9.20;;;7.83;;
68866;SDS011;56451;44.804;20.476;2023-04-24T12:45:11;11.77;;;7.85;;
68866;SDS011;56451;44.804;20.476;2023-04-24T12:47:37;15.05;;;8.50;;
68866;SDS011;56451;44.804;20.476;2023-04-24T12:50:04;11.88;;;8.40;;
68866;SDS011;56451;44.804;20.476;2023-04-24T12:52:31;9.97;;;7.97;;
68866;SDS011;56451;44.804;20.476;2023-04-24T12:54:58;11.57;;;8.85;;
68866;SDS011;56451;44.804;20.476;2023-04-24T12:57:26;13.98;;;8.82;;
68866;SDS011;56451;44.804;20.476;2023-04-24T12:59:54;12.73;;;8.23;;
68866;SDS011;56451;44.804;20.476;2023-04-24T13:02:22;13.53;;;8.70;;
68866;SDS011;56451;44.804;20.476;2023-04-24T13:04:49;13.70;;;8.85;;
68866;SDS011;56451;44.804;20.476;2023-04-24T13:07:15;13.05;;;8.30;;
68866;SDS011;56451;44.804;20.476;2023-04-24T13:09:42;11.75;;;7.78;;
68866;SDS011;56451;44.804;20.476;2023-04-24T13:12:09;10.63;;;7.97;;
68866;SDS011;56451;44.804;20.476;2023-04-24T13:14:36;10.07;;;7.63;;
68866;SDS011;56451;44.804;20.476;2023-04-24T13:17:02;12.73;;;7.25;;
68866;SDS011;56451;44.804;20.476;2023-04-24T13:19:28;11.68;;;7.70;;
68866;SDS011;56451;44.804;20.476;2023-04-24T13:21:55;11.80;;;6.82;;
68866;SDS011;56451;44.804;20.476;2023-04-24T13:24:23;13.88;;;7.22;;
68866;SDS011;56451;44.804;20.476;2023-04-24T13:26:54;10.43;;;7.10;;
68866;SDS011;56451;44.804;20.476;2023-04-24T13:29:22;11.68;;;7.43;;
68866;SDS011;56451;44.804;20.476;2023-04-24T13:31:52;10.52;;;6.53;;
68866;SDS011;56451;44.804;20.476;2023-04-24T13:34:22;8.57;;;6.35;;
68866;SDS011;56451;44.804;20.476;2023-04-24T13:36:49;9.32;;;6.88;;
68866;SDS011;56451;44.804;20.476;2023-04-24T13:39:16;11.37;;;7.00;;
68866;SDS011;56451;44.804;20.476;2023-04-24T13:41:43;9.75;;;6.47;;
68866;SDS011;56451;44.804;20.476;2023-04-24T13:44:09;9.38;;;6.50;;
68866;SDS011;56451;44.804;20.476;2023-04-24T13:46:35;9.80;;;6.18;;
68866;SDS011;56451;44.804;20.476;2023-04-24T13:49:01;7.40;;;6.03;;
68866;SDS011;56451;44.804;20.476;2023-04-24T13:51:29;9.35;;;6.82;;
68866;SDS011;56451;44.804;20.476;2023-04-24T13:53:55;9.82;;;5.70;;
68866;SDS011;56451;44.804;20.476;2023-04-24T13:56:21;9.65;;;6.28;;
68866;SDS011;56451;44.804;20.476;2023-04-24T13:58:48;9.63;;;6.13;;
68866;SDS011;56451;44.804;20.476;2023-04-24T14:01:14;9.27;;;6.00;;
68866;SDS011;56451;44.804;20.476;2023-04-24T14:03:41;10.48;;;6.30;;
68866;SDS011;56451;44.804;20.476;2023-04-24T14:06:08;9.60;;;6.25;;
68866;SDS011;56451;44.804;20.476;2023-04-24T14:08:34;10.10;;;5.85;;
68866;SDS011;56451;44.804;20.476;2023-04-24T14:11:00;8.47;;;5.77;;
68866;SDS011;56451;44.804;20.476;2023-04-24T14:13:26;11.10;;;6.07;;
68866;SDS011;56451;44.804;20.476;2023-04-24T14:15:53;9.32;;;6.50;;
68866;SDS011;56451;44.804;20.476;2023-04-24T14:18:19;9.05;;;5.90;;
68866;SDS011;56451;44.804;20.476;2023-04-24T14:20:45;8.93;;;6.13;;
68866;SDS011;56451;44.804;20.476;2023-04-24T14:23:11;9.77;;;6.32;;
68866;SDS011;56451;44.804;20.476;2023-04-24T14:25:37;7.95;;;5.63;;
68866;SDS011;56451;44.804;20.476;2023-04-24T14:28:03;8.18;;;5.97;;
68866;SDS011;56451;44.804;20.476;2023-04-24T14:30:30;9.48;;;6.03;;
68866;SDS011;56451;44.804;20.476;2023-04-24T14:32:56;12.03;;;5.97;;
68866;SDS011;56451;44.804;20.476;2023-04-24T14:35:22;8.40;;;5.70;;
68866;SDS011;56451;44.804;20.476;2023-04-24T14:37:48;5.90;;;4.53;;
68866;SDS011;56451;44.804;20.476;2023-04-24T14:40:15;5.95;;;4.22;;
68866;SDS011;56451;44.804;20.476;2023-04-24T14:42:41;5.80;;;4.17;;
68866;SDS011;56451;44.804;20.476;2023-04-24T14:45:07;5.70;;;3.92;;
68866;SDS011;56451;44.804;20.476;2023-04-24T14:47:33;5.68;;;3.72;;